Time;durP1;ratioP1;P1;durP2;ratioP2;P2;SDS_P1;SDS_P2;PMS_P1;PMS_P2;Temp;Humidity;BMP_temperature;BMP_pressure;BME280_temperature;BME280_humidity;BME280_pressure;Samples;Min_cycle;Max_cycle;Signal;HPM_P1;HPM_P2
2022/07/29 00:02:39;;;;;;;2.10;1.00;;;22.20;56.20;;;;;;10396930;28;20116;-52
2022/07/29 00:07:41;;;;;;;2.22;0.93;;;22.20;56.30;;;;;;10384869;28;20026;-52
2022/07/29 00:12:41;;;;;;;1.52;0.70;;;22.20;56.20;;;;;;10396629;28;20030;-53
2022/07/29 00:17:42;;;;;;;1.50;0.70;;;22.20;56.20;;;;;;10393880;28;20041;-50
2022/07/29 00:22:43;;;;;;;1.85;0.95;;;22.20;56.20;;;;;;10391445;28;20381;-51
2022/07/29 00:27:45;;;;;;;1.05;0.70;;;22.20;56.20;;;;;;10388799;28;20534;-52
2022/07/29 00:32:46;;;;;;;1.98;0.85;;;22.20;56.30;;;;;;10382312;28;20121;-51
2022/07/29 00:37:46;;;;;;;1.50;0.75;;;22.20;56.20;;;;;;10371592;28;20034;-52
2022/07/29 00:42:50;;;;;;;1.27;0.75;;;22.20;56.30;;;;;;10372162;28;20045;-51
2022/07/29 00:47:51;;;;;;;1.40;0.80;;;22.20;56.30;;;;;;10371064;28;20026;-51
2022/07/29 00:52:52;;;;;;;1.35;1.05;;;22.10;56.30;;;;;;10398252;28;20033;-49
2022/07/29 00:57:54;;;;;;;1.52;1.10;;;22.10;56.20;;;;;;10373630;28;20107;-51
2022/07/29 01:02:55;;;;;;;0.90;0.70;;;22.10;56.20;;;;;;10400826;28;20073;-52
2022/07/29 01:07:58;;;;;;;1.33;0.95;;;22.10;56.20;;;;;;10370137;28;20105;-51
2022/07/29 01:13:01;;;;;;;2.00;0.75;;;22.10;56.20;;;;;;10371316;28;20405;-52
2022/07/29 01:18:22;;;;;;;1.73;0.80;;;22.10;56.30;;;;;;10378053;28;20038;-49
2022/07/29 01:23:57;;;;;;;1.45;0.77;;;22.10;56.30;;;;;;10370472;28;20140;-51
2022/07/29 01:29:07;;;;;;;1.20;0.80;;;22.10;56.30;;;;;;10393339;28;20033;-49
2022/07/29 01:34:16;;;;;;;1.67;0.70;;;22.10;56.30;;;;;;10368236;28;20022;-51
2022/07/29 01:39:25;;;;;;;1.48;0.85;;;22.10;56.30;;;;;;10352671;28;20041;-52
2022/07/29 01:44:37;;;;;;;1.83;0.85;;;22.10;56.30;;;;;;10367472;28;20039;-50
2022/07/29 01:49:46;;;;;;;1.67;0.68;;;22.10;56.30;;;;;;10367981;28;20045;-51
2022/07/29 01:54:55;;;;;;;1.63;0.80;;;22.10;56.40;;;;;;10368963;28;20053;-50
2022/07/29 02:00:00;;;;;;;1.42;0.80;;;22.10;56.40;;;;;;10367583;28;20068;-52
2022/07/29 02:05:05;;;;;;;1.65;0.90;;;22.10;56.40;;;;;;10367181;28;20029;-50
2022/07/29 02:10:09;;;;;;;1.45;0.80;;;22.10;56.40;;;;;;10398992;28;20036;-53
2022/07/29 02:15:11;;;;;;;1.30;0.85;;;22.10;56.40;;;;;;10406428;28;20029;-49
2022/07/29 02:20:12;;;;;;;2.72;0.80;;;22.10;56.50;;;;;;10388560;28;20089;-50
2022/07/29 02:25:15;;;;;;;1.65;0.93;;;22.10;56.60;;;;;;10385558;28;20108;-49
2022/07/29 02:30:17;;;;;;;1.05;0.70;;;22.10;56.60;;;;;;10401722;28;20037;-54
2022/07/29 02:35:19;;;;;;;1.27;1.00;;;22.10;56.70;;;;;;10393937;28;20545;-52
2022/07/29 02:40:20;;;;;;;1.60;0.95;;;22.10;56.60;;;;;;10406582;28;20033;-53
2022/07/29 02:45:21;;;;;;;1.70;0.90;;;22.00;56.60;;;;;;10397996;28;20087;-50
2022/07/29 02:50:32;;;;;;;0.90;0.65;;;22.00;56.70;;;;;;10393156;28;20079;-53
2022/07/29 02:55:51;;;;;;;1.23;0.80;;;22.00;56.60;;;;;;10384373;28;20041;-52
2022/07/29 03:00:53;;;;;;;1.65;0.90;;;22.00;56.70;;;;;;10412689;28;20405;-52
2022/07/29 03:05:56;;;;;;;1.63;0.88;;;22.00;56.80;;;;;;10388039;28;20038;-53
2022/07/29 03:10:57;;;;;;;1.17;0.77;;;22.00;56.80;;;;;;10392195;28;20026;-53
2022/07/29 03:15:59;;;;;;;1.40;0.90;;;22.00;56.80;;;;;;10385911;28;20037;-51
2022/07/29 03:21:00;;;;;;;1.48;0.90;;;22.00;56.80;;;;;;10378621;28;20080;-51
2022/07/29 03:26:01;;;;;;;1.17;0.70;;;22.00;56.80;;;;;;10374987;28;20021;-51
2022/07/29 03:31:01;;;;;;;2.40;0.88;;;22.00;56.90;;;;;;10399458;28;20029;-50
2022/07/29 03:36:02;;;;;;;2.45;1.05;;;22.00;56.80;;;;;;10389004;28;20033;-52
2022/07/29 03:41:08;;;;;;;1.25;0.85;;;22.00;56.80;;;;;;10412606;28;20053;-50
2022/07/29 03:46:11;;;;;;;1.08;0.77;;;22.00;56.80;;;;;;10384022;28;20037;-52
2022/07/29 03:51:12;;;;;;;2.30;0.85;;;22.00;56.90;;;;;;10395702;28;20392;-52
2022/07/29 03:56:16;;;;;;;1.63;1.10;;;22.00;56.90;;;;;;10390734;28;20042;-53
2022/07/29 04:01:18;;;;;;;1.83;1.13;;;22.00;57.00;;;;;;10395319;28;20117;-49
2022/07/29 04:06:19;;;;;;;2.03;0.93;;;21.90;57.00;;;;;;10374640;28;20032;-51
2022/07/29 04:11:20;;;;;;;1.77;0.98;;;22.00;57.00;;;;;;10387458;28;20060;-53
2022/07/29 04:16:20;;;;;;;1.38;1.00;;;22.00;57.00;;;;;;10387378;28;20472;-51
2022/07/29 04:21:21;;;;;;;0.90;0.80;;;22.00;57.10;;;;;;10385782;28;20452;-52
2022/07/29 04:26:22;;;;;;;2.88;1.15;;;21.90;57.10;;;;;;10412144;28;20386;-53
2022/07/29 04:31:23;;;;;;;2.45;0.93;;;21.90;57.00;;;;;;10394107;28;20740;-50
2022/07/29 04:36:23;;;;;;;1.10;0.73;;;21.90;57.10;;;;;;10395532;28;20051;-52
2022/07/29 04:41:24;;;;;;;2.28;1.20;;;21.90;57.10;;;;;;10384060;28;20038;-51
2022/07/29 04:46:25;;;;;;;1.20;0.85;;;21.90;57.10;;;;;;10371119;28;20692;-53
2022/07/29 04:51:25;;;;;;;7.82;1.13;;;21.90;57.50;;;;;;10386288;28;20033;-55
2022/07/29 04:56:27;;;;;;;3.30;1.30;;;22.00;58.20;;;;;;10403191;28;20039;-54
2022/07/29 05:01:27;;;;;;;6.35;1.20;;;22.00;58.40;;;;;;10410027;28;20480;-53
2022/07/29 05:06:28;;;;;;;4.75;1.52;;;22.00;58.80;;;;;;10405879;28;20124;-50
2022/07/29 05:11:29;;;;;;;4.97;1.25;;;22.00;58.20;;;;;;10376727;28;20042;-54
2022/07/29 05:16:30;;;;;;;5.80;1.85;;;22.00;58.10;;;;;;10390062;28;20188;-54
2022/07/29 05:21:30;;;;;;;4.90;1.40;;;22.00;58.10;;;;;;10378237;28;20025;-52
2022/07/29 05:26:31;;;;;;;5.97;1.58;;;21.90;58.10;;;;;;10384942;28;20029;-52
2022/07/29 05:31:33;;;;;;;2.75;1.00;;;21.90;58.30;;;;;;10387109;28;20509;-52
2022/07/29 05:36:33;;;;;;;4.18;1.35;;;21.90;57.90;;;;;;10382100;28;20064;-52
2022/07/29 05:41:34;;;;;;;4.78;1.13;;;21.90;58.10;;;;;;10405949;28;20136;-53
2022/07/29 05:46:35;;;;;;;2.53;1.40;;;21.90;58.00;;;;;;10408764;28;20518;-52
2022/07/29 05:51:36;;;;;;;3.95;1.55;;;21.90;58.00;;;;;;10408254;28;20033;-53
2022/07/29 05:56:36;;;;;;;3.67;1.20;;;21.90;58.10;;;;;;10407034;28;20084;-53
2022/07/29 06:01:39;;;;;;;2.78;1.15;;;21.90;58.00;;;;;;10407831;28;20038;-53
2022/07/29 06:06:39;;;;;;;3.22;1.00;;;21.90;58.00;;;;;;10393037;28;20026;-52
2022/07/29 06:11:41;;;;;;;2.35;1.30;;;21.90;58.00;;;;;;10385085;28;20025;-53
2022/07/29 06:16:42;;;;;;;2.95;1.40;;;21.90;58.10;;;;;;10367220;28;20040;-54
2022/07/29 06:21:43;;;;;;;3.40;1.40;;;21.90;58.10;;;;;;10378982;28;20569;-54
2022/07/29 06:26:44;;;;;;;2.60;1.20;;;21.90;58.10;;;;;;10404348;28;20397;-52
2022/07/29 06:31:45;;;;;;;2.45;1.58;;;21.90;58.10;;;;;;10414856;28;20036;-52
2022/07/29 06:36:46;;;;;;;2.05;1.10;;;21.90;58.10;;;;;;10392707;28;20501;-53
2022/07/29 06:41:49;;;;;;;3.22;1.23;;;21.90;58.10;;;;;;10392716;28;20134;-53
2022/07/29 06:46:51;;;;;;;2.60;1.10;;;21.90;58.10;;;;;;10388642;28;20034;-53
2022/07/29 06:51:52;;;;;;;2.13;0.95;;;21.90;58.20;;;;;;10365857;28;20034;-52
2022/07/29 06:56:53;;;;;;;2.67;1.13;;;21.90;58.20;;;;;;10366155;28;20601;-53
2022/07/29 07:01:54;;;;;;;1.98;1.27;;;21.90;58.10;;;;;;10365693;28;20040;-53
2022/07/29 07:06:55;;;;;;;2.17;0.85;;;21.90;58.20;;;;;;10378836;28;20100;-50
2022/07/29 07:11:56;;;;;;;2.53;0.77;;;21.90;58.10;;;;;;10366101;28;20026;-52
2022/07/29 07:16:56;;;;;;;2.38;1.30;;;21.90;58.20;;;;;;10375829;28;20037;-52
2022/07/29 07:21:57;;;;;;;1.92;1.13;;;21.90;58.20;;;;;;10372944;28;20044;-53
2022/07/29 07:26:58;;;;;;;1.92;1.00;;;21.90;58.20;;;;;;10404828;28;20040;-53
2022/07/29 07:31:59;;;;;;;2.35;1.35;;;21.90;58.10;;;;;;10385276;28;20116;-52
2022/07/29 07:36:59;;;;;;;2.10;1.23;;;21.80;58.20;;;;;;10365167;28;20037;-52
2022/07/29 07:42:00;;;;;;;2.97;1.20;;;21.80;58.30;;;;;;10363893;28;20038;-52
2022/07/29 07:47:01;;;;;;;1.83;1.00;;;21.80;58.40;;;;;;10372167;28;20044;-54
2022/07/29 07:52:01;;;;;;;2.50;0.93;;;21.90;58.40;;;;;;10372019;28;20130;-52
2022/07/29 07:57:02;;;;;;;2.17;1.02;;;21.90;58.50;;;;;;10371716;28;20116;-53
2022/07/29 08:02:04;;;;;;;3.00;1.10;;;21.90;58.50;;;;;;10371875;28;20040;-52
2022/07/29 08:07:05;;;;;;;2.15;1.20;;;21.90;58.50;;;;;;10370149;28;20018;-53
2022/07/29 08:12:06;;;;;;;1.48;1.10;;;21.80;58.40;;;;;;10370986;28;20095;-53
2022/07/29 08:17:06;;;;;;;1.60;1.00;;;21.80;58.60;;;;;;10369891;28;20061;-54
2022/07/29 08:22:07;;;;;;;1.55;1.20;;;21.80;58.50;;;;;;10376636;28;20416;-52
2022/07/29 08:27:09;;;;;;;3.30;1.30;;;21.80;58.60;;;;;;10371097;28;20497;-53
2022/07/29 08:32:09;;;;;;;2.42;1.30;;;21.80;58.60;;;;;;10392958;28;20448;-52
2022/07/29 08:37:10;;;;;;;2.22;1.20;;;21.80;58.80;;;;;;10379969;28;20113;-53
2022/07/29 08:42:11;;;;;;;1.75;1.10;;;21.80;58.80;;;;;;10369839;28;20046;-53
2022/07/29 08:47:14;;;;;;;2.65;1.33;;;21.80;58.90;;;;;;10382018;28;20022;-53
2022/07/29 08:52:16;;;;;;;4.00;1.45;;;21.80;58.80;;;;;;10368528;28;20057;-52
2022/07/29 08:57:18;;;;;;;3.35;2.05;;;21.80;59.00;;;;;;10367420;28;20108;-53
2022/07/29 09:02:22;;;;;;;2.33;1.25;;;21.80;59.00;;;;;;10406178;28;20029;-53
2022/07/29 09:07:23;;;;;;;2.67;1.20;;;21.80;59.10;;;;;;10410282;28;20025;-52
2022/07/29 09:12:24;;;;;;;2.35;1.13;;;21.80;59.10;;;;;;10410187;28;20080;-53
2022/07/29 09:17:45;;;;;;;2.75;1.33;;;21.80;59.20;;;;;;10408246;28;20037;-54
2022/07/29 09:22:49;;;;;;;1.40;0.85;;;21.80;59.20;;;;;;10374751;28;20381;-52
2022/07/29 09:27:52;;;;;;;1.38;0.90;;;21.80;59.10;;;;;;10371722;28;20033;-52
2022/07/29 09:33:02;;;;;;;2.55;1.10;;;21.80;59.30;;;;;;10399924;28;20083;-52
2022/07/29 09:38:21;;;;;;;1.40;1.10;;;21.80;59.40;;;;;;10381504;28;20033;-52
2022/07/29 09:43:22;;;;;;;2.33;1.60;;;21.80;59.40;;;;;;10394200;28;20373;-54
2022/07/29 09:48:24;;;;;;;2.53;1.30;;;21.80;59.40;;;;;;10390951;28;20022;-52
2022/07/29 09:53:37;;;;;;;1.70;1.30;;;21.80;59.50;;;;;;10409162;28;20039;-53
2022/07/29 09:58:37;;;;;;;2.28;1.38;;;21.90;59.50;;;;;;10408477;28;20123;-54
2022/07/29 10:03:53;;;;;;;2.00;1.13;;;21.90;59.50;;;;;;10406532;28;20477;-53
2022/07/29 10:09:10;;;;;;;1.60;0.90;;;21.90;59.40;;;;;;10380001;28;20029;-53
2022/07/29 10:14:11;;;;;;;2.40;1.10;;;21.90;59.40;;;;;;10393576;28;20091;-51
2022/07/29 10:19:13;;;;;;;3.60;1.10;;;22.00;59.50;;;;;;10393157;28;20542;-53
2022/07/29 10:24:14;;;;;;;1.92;1.55;;;22.00;59.40;;;;;;10399164;28;20516;-51
2022/07/29 10:29:15;;;;;;;1.63;1.42;;;22.00;59.30;;;;;;10391737;28;20381;-54
2022/07/29 10:34:58;;;;;;;1.20;0.93;;;22.00;59.40;;;;;;10365114;28;20104;-56
2022/07/29 10:46:00;;;;;;;2.25;1.17;;;22.10;59.20;;;;;;10366062;28;20046;-57
2022/07/29 10:51:04;;;;;;;1.52;1.02;;;22.10;59.10;;;;;;10364876;28;20033;-52
2022/07/29 10:56:22;;;;;;;1.85;1.08;;;22.20;59.20;;;;;;10364794;28;20354;-54
2022/07/29 11:01:31;;;;;;;1.92;1.30;;;22.20;59.20;;;;;;10394205;28;20038;-53
2022/07/29 11:07:00;;;;;;;1.38;0.90;;;22.20;59.10;;;;;;10392407;28;20075;-53
2022/07/29 11:12:01;;;;;;;2.95;1.45;;;22.30;59.10;;;;;;10406690;28;20075;-53
2022/07/29 11:17:05;;;;;;;1.52;1.17;;;22.20;59.70;;;;;;10392335;28;20037;-53
2022/07/29 11:22:09;;;;;;;1.40;1.10;;;22.30;59.00;;;;;;10380178;28;20030;-54
2022/07/29 11:27:17;;;;;;;1.95;1.10;;;22.30;59.00;;;;;;10372834;28;20053;-53
2022/07/29 11:32:19;;;;;;;1.73;1.30;;;22.30;59.10;;;;;;10388134;28;20610;-54
2022/07/29 11:37:22;;;;;;;2.65;1.13;;;22.30;59.00;;;;;;10372556;28;20034;-53
2022/07/29 11:42:22;;;;;;;1.70;1.13;;;22.30;59.00;;;;;;10371312;28;20046;-53
2022/07/29 11:47:25;;;;;;;2.13;1.00;;;22.40;59.00;;;;;;10372134;28;20026;-52
2022/07/29 11:52:47;;;;;;;2.92;1.17;;;22.40;59.00;;;;;;10385641;28;20034;-52
2022/07/29 11:57:59;;;;;;;2.25;1.40;;;22.40;59.00;;;;;;10370389;28;20041;-54
2022/07/29 12:03:08;;;;;;;1.98;1.55;;;22.40;58.90;;;;;;10370517;28;20438;-51
2022/07/29 12:08:19;;;;;;;2.95;1.30;;;22.40;58.90;;;;;;10372249;28;20033;-52
2022/07/29 12:13:20;;;;;;;1.80;1.10;;;22.40;58.90;;;;;;10370246;28;20041;-52
2022/07/29 12:18:21;;;;;;;1.85;1.02;;;22.50;59.00;;;;;;10366900;28;20033;-51
2022/07/29 12:23:22;;;;;;;1.38;0.95;;;22.50;58.90;;;;;;10376761;28;20033;-53
2022/07/29 12:28:23;;;;;;;2.00;1.10;;;22.50;59.00;;;;;;10389717;28;20033;-53
2022/07/29 12:33:27;;;;;;;0.85;0.73;;;22.50;58.90;;;;;;10371858;28;20470;-53
2022/07/29 12:38:29;;;;;;;3.53;1.13;;;22.50;58.80;;;;;;10369309;28;20037;-51
2022/07/29 12:43:29;;;;;;;2.17;1.10;;;22.50;58.90;;;;;;10368677;28;20397;-53
2022/07/29 12:48:39;;;;;;;2.42;0.88;;;22.50;58.90;;;;;;10370875;28;20133;-51
2022/07/29 12:53:40;;;;;;;2.42;1.02;;;22.50;58.90;;;;;;10369459;28;20042;-52
2022/07/29 12:58:42;;;;;;;1.83;1.45;;;22.50;58.90;;;;;;10387970;28;20428;-52
2022/07/29 13:04:03;;;;;;;1.73;1.10;;;22.50;58.80;;;;;;10390600;28;20116;-53
2022/07/29 13:09:14;;;;;;;1.35;1.08;;;22.50;58.80;;;;;;10368695;28;20025;-53
2022/07/29 13:14:45;;;;;;;1.80;1.10;;;22.50;58.70;;;;;;10401310;28;20064;-51
2022/07/29 13:19:49;;;;;;;2.05;1.30;;;22.60;58.90;;;;;;10368855;28;20026;-52
2022/07/29 13:24:52;;;;;;;2.20;1.20;;;22.60;58.90;;;;;;10370049;28;20057;-54
2022/07/29 13:29:57;;;;;;;1.60;1.08;;;22.60;58.90;;;;;;10384192;28;20470;-54
2022/07/29 13:35:01;;;;;;;1.45;1.00;;;22.60;58.90;;;;;;10368425;28;20045;-51
2022/07/29 13:40:04;;;;;;;1.00;0.90;;;22.60;58.90;;;;;;10367300;28;20026;-53
2022/07/29 13:45:06;;;;;;;1.20;0.88;;;22.60;59.00;;;;;;10367228;28;20136;-53
2022/07/29 13:50:09;;;;;;;1.60;1.08;;;22.60;59.00;;;;;;10367203;28;20045;-52
2022/07/29 13:55:10;;;;;;;1.52;0.98;;;22.50;59.00;;;;;;10380638;28;20108;-54
2022/07/29 14:00:12;;;;;;;2.05;1.30;;;22.60;59.00;;;;;;10367509;28;20110;-53
2022/07/29 14:05:13;;;;;;;1.73;1.38;;;22.60;59.00;;;;;;10367293;28;20488;-53
2022/07/29 14:10:14;;;;;;;1.40;0.95;;;22.60;59.10;;;;;;10396894;28;20032;-54
2022/07/29 14:15:14;;;;;;;2.13;1.00;;;22.50;59.10;;;;;;10379434;28;20037;-54
2022/07/29 14:20:15;;;;;;;1.13;1.00;;;22.50;59.20;;;;;;10379914;28;20025;-53
2022/07/29 14:25:16;;;;;;;1.83;1.10;;;22.40;59.30;;;;;;10405128;28;20045;-53
2022/07/29 14:30:16;;;;;;;1.95;1.40;;;22.40;59.40;;;;;;10399662;28;20174;-53
2022/07/29 14:35:17;;;;;;;2.33;0.90;;;22.40;59.50;;;;;;10378874;28;20037;-53
2022/07/29 14:40:18;;;;;;;2.63;1.13;;;22.40;59.50;;;;;;10397127;28;20493;-53
2022/07/29 14:45:19;;;;;;;0.98;0.80;;;22.40;59.60;;;;;;10407103;28;20393;-52
2022/07/29 14:50:19;;;;;;;1.25;0.93;;;22.30;59.50;;;;;;10401593;28;20033;-54
2022/07/29 14:55:21;;;;;;;1.95;1.20;;;22.30;59.60;;;;;;10369134;28;20036;-54
2022/07/29 15:00:22;;;;;;;1.98;1.27;;;22.40;59.60;;;;;;10374947;28;20880;-54
2022/07/29 15:05:22;;;;;;;1.95;1.30;;;22.30;59.60;;;;;;10413477;28;20042;-51
2022/07/29 15:10:23;;;;;;;1.90;1.30;;;22.40;59.70;;;;;;10414545;28;20029;-52
2022/07/29 15:15:24;;;;;;;1.52;1.00;;;22.40;59.70;;;;;;10401943;28;20056;-54
2022/07/29 15:20:26;;;;;;;1.40;0.80;;;22.40;59.60;;;;;;10392413;28;20037;-53
2022/07/29 15:25:27;;;;;;;1.73;1.20;;;22.40;59.70;;;;;;10397059;28;20025;-53
2022/07/29 15:30:31;;;;;;;2.88;1.13;;;22.40;59.60;;;;;;10390030;28;20120;-53
2022/07/29 15:35:32;;;;;;;1.58;1.00;;;22.40;59.60;;;;;;10386570;28;20509;-50
2022/07/29 15:40:33;;;;;;;1.45;1.13;;;22.40;59.60;;;;;;10372475;28;20042;-54
2022/07/29 15:47:02;;;;;;;2.28;1.70;;;22.40;59.50;;;;;;10402408;28;20033;-54
2022/07/29 15:51:02;;;;;;;2.58;1.45;;;22.40;59.50;;;;;;10398541;28;20038;-51
2022/07/29 15:56:03;;;;;;;1.20;1.10;;;22.40;59.60;;;;;;10373565;28;20022;-53
2022/07/29 16:01:04;;;;;;;1.45;1.10;;;22.40;59.50;;;;;;10371769;28;20459;-54
2022/07/29 16:06:05;;;;;;;2.13;1.10;;;22.40;59.50;;;;;;10372261;28;20029;-53
2022/07/29 16:11:06;;;;;;;1.88;1.05;;;22.40;59.40;;;;;;10384774;28;20076;-54
2022/07/29 16:16:06;;;;;;;2.28;1.20;;;22.40;59.40;;;;;;10410817;28;20544;-52
2022/07/29 16:21:07;;;;;;;1.50;1.00;;;22.40;59.40;;;;;;10399263;28;20527;-52
2022/07/29 16:26:08;;;;;;;1.30;1.20;;;22.40;59.40;;;;;;10410312;28;20109;-53
2022/07/29 16:31:09;;;;;;;1.70;1.33;;;22.50;59.40;;;;;;10395529;28;20105;-55
2022/07/29 16:36:09;;;;;;;2.55;1.20;;;22.50;59.40;;;;;;10369002;28;20034;-51
2022/07/29 16:41:10;;;;;;;2.13;1.42;;;22.40;59.30;;;;;;10370157;28;20084;-52
2022/07/29 16:46:11;;;;;;;1.92;1.55;;;22.40;59.30;;;;;;10368395;28;20040;-52
2022/07/29 16:51:12;;;;;;;1.58;1.17;;;22.50;59.40;;;;;;10368440;28;20111;-53
2022/07/29 16:56:13;;;;;;;2.22;1.30;;;22.50;59.40;;;;;;10368686;28;20030;-52
2022/07/29 17:01:13;;;;;;;1.85;1.20;;;22.50;59.40;;;;;;10368445;28;20480;-53
2022/07/29 17:06:14;;;;;;;2.45;1.52;;;22.50;59.30;;;;;;10380154;28;20037;-53
2022/07/29 17:11:15;;;;;;;3.40;1.52;;;22.50;59.30;;;;;;10382942;28;20025;-52
2022/07/29 17:16:15;;;;;;;1.88;1.40;;;22.50;59.30;;;;;;10367607;28;20130;-52
2022/07/29 17:21:17;;;;;;;1.88;1.30;;;22.50;59.30;;;;;;10374120;28;20124;-54
2022/07/29 17:26:18;;;;;;;1.25;1.05;;;22.50;59.30;;;;;;10377024;28;20036;-52
2022/07/29 17:31:20;;;;;;;3.38;1.50;;;22.50;59.30;;;;;;10393010;28;20032;-53
2022/07/29 17:36:23;;;;;;;2.55;1.65;;;22.50;59.30;;;;;;10375407;28;20029;-53
2022/07/29 17:41:32;;;;;;;2.83;1.70;;;22.50;59.20;;;;;;10654562;27;19915;-51
2022/07/29 17:46:32;;;;;;;2.55;1.40;;;22.50;59.20;;;;;;10610376;28;20084;-51
2022/07/29 17:51:33;;;;;;;2.40;1.25;;;22.50;59.30;;;;;;10591354;28;20111;-51
2022/07/29 17:56:35;;;;;;;2.63;1.77;;;22.50;59.30;;;;;;10591108;28;20039;-51
2022/07/29 18:01:37;;;;;;;2.65;1.50;;;22.50;59.20;;;;;;10609176;27;20028;-50
2022/07/29 18:06:38;;;;;;;3.75;1.85;;;22.50;59.20;;;;;;10571568;27;20028;-52
2022/07/29 18:11:39;;;;;;;2.75;1.40;;;22.50;59.30;;;;;;10598904;28;20027;-51
2022/07/29 18:16:40;;;;;;;7.57;1.83;;;22.50;59.30;;;;;;10567699;28;20111;-50
2022/07/29 18:21:40;;;;;;;3.35;1.40;;;22.50;59.60;;;;;;10567601;28;20106;-51
2022/07/29 18:26:41;;;;;;;4.68;2.20;;;22.60;59.40;;;;;;10566111;28;20043;-53
2022/07/29 18:31:42;;;;;;;5.55;2.45;;;22.60;59.30;;;;;;10529345;28;20019;-53
2022/07/29 18:36:44;;;;;;;4.40;1.90;;;22.60;59.60;;;;;;10565973;28;20111;-54
2022/07/29 18:41:45;;;;;;;3.03;1.65;;;22.60;59.60;;;;;;10565336;28;20490;-53
2022/07/29 18:46:46;;;;;;;6.90;2.20;;;22.70;59.80;;;;;;10564429;28;20020;-54
2022/07/29 18:51:47;;;;;;;6.13;2.17;;;22.70;59.90;;;;;;10525620;28;20035;-52
2022/07/29 18:56:48;;;;;;;4.63;2.03;;;22.70;60.00;;;;;;10537690;28;20505;-51
2022/07/29 19:01:49;;;;;;;4.43;1.90;;;22.70;59.60;;;;;;10538039;28;20032;-53
2022/07/29 19:06:50;;;;;;;3.58;1.50;;;22.60;59.30;;;;;;10538446;28;20028;-53
2022/07/29 19:11:51;;;;;;;3.25;1.98;;;22.60;59.40;;;;;;10519212;28;20028;-49
2022/07/29 19:16:51;;;;;;;5.03;2.30;;;22.60;59.30;;;;;;10537595;28;20119;-53
2022/07/29 19:21:53;;;;;;;3.28;2.03;;;22.60;59.40;;;;;;10532789;28;20028;-53
2022/07/29 19:26:55;;;;;;;3.83;1.77;;;22.60;59.30;;;;;;10533400;28;20078;-50
2022/07/29 19:31:58;;;;;;;5.35;2.05;;;22.60;59.10;;;;;;10536162;28;20028;-53
2022/07/29 19:36:58;;;;;;;4.10;1.95;;;22.60;58.90;;;;;;10518279;28;20044;-53
2022/07/29 19:42:00;;;;;;;4.40;2.30;;;22.70;59.20;;;;;;10535208;28;20546;-53
2022/07/29 19:47:01;;;;;;;5.05;2.40;;;22.70;59.30;;;;;;10533193;28;20032;-50
2022/07/29 19:52:02;;;;;;;2.92;1.90;;;22.70;59.20;;;;;;10533100;28;20106;-49
2022/07/29 19:57:03;;;;;;;3.47;2.28;;;22.70;59.10;;;;;;10531822;28;20036;-50
2022/07/29 20:02:03;;;;;;;2.20;1.77;;;22.70;58.90;;;;;;10514395;28;20545;-49
2022/07/29 20:07:05;;;;;;;3.70;1.77;;;22.70;58.90;;;;;;10514473;28;20020;-50
2022/07/29 20:12:08;;;;;;;4.28;1.92;;;22.60;58.90;;;;;;10532003;28;20024;-52
2022/07/29 20:17:08;;;;;;;2.63;2.10;;;22.70;58.90;;;;;;10533235;28;20107;-49
2022/07/29 20:22:09;;;;;;;4.20;2.20;;;22.60;58.80;;;;;;10533892;28;20020;-49
2022/07/29 20:27:11;;;;;;;5.47;2.65;;;22.70;58.80;;;;;;10515747;28;20040;-48
2022/07/29 20:32:12;;;;;;;5.40;1.88;;;22.60;58.80;;;;;;10526917;28;20371;-54
2022/07/29 20:37:15;;;;;;;3.22;1.80;;;22.60;58.70;;;;;;10515938;28;20044;-49
2022/07/29 20:42:15;;;;;;;3.53;2.08;;;22.70;58.80;;;;;;10534893;28;20591;-52
2022/07/29 20:47:16;;;;;;;3.60;2.08;;;22.70;58.70;;;;;;10534107;28;20028;-51
2022/07/29 20:52:18;;;;;;;3.40;1.98;;;22.70;58.70;;;;;;10534224;28;20597;-52
2022/07/29 20:57:19;;;;;;;2.67;1.60;;;22.70;58.60;;;;;;10534185;28;20060;-52
2022/07/29 21:02:19;;;;;;;2.40;1.85;;;22.70;58.50;;;;;;10514676;28;20106;-47
2022/07/29 21:07:20;;;;;;;3.25;2.33;;;22.60;58.50;;;;;;10532857;28;20085;-48
2022/07/29 21:12:21;;;;;;;3.90;1.83;;;22.60;58.50;;;;;;10533203;28;20556;-49
2022/07/29 21:17:22;;;;;;;3.22;1.65;;;22.60;58.50;;;;;;10519381;28;20475;-49
2022/07/29 21:22:22;;;;;;;2.22;2.03;;;22.60;58.50;;;;;;10532823;28;20028;-49
2022/07/29 21:32:42;;;;;;;3.90;1.98;;;22.60;58.50;;;;;;10526763;28;20123;-51
2022/07/29 21:37:43;;;;;;;3.25;1.95;;;22.60;58.60;;;;;;10514302;28;20406;-49
2022/07/29 21:42:44;;;;;;;8.95;2.70;;;22.60;58.60;;;;;;10532565;28;20566;-50
2022/07/29 21:47:44;;;;;;;3.70;2.22;;;22.60;58.70;;;;;;10514168;28;20032;-50
2022/07/29 21:52:45;;;;;;;3.78;2.17;;;22.60;58.70;;;;;;10532195;28;20103;-52
2022/07/29 21:57:46;;;;;;;3.08;2.10;;;22.60;58.70;;;;;;10532273;28;20032;-51
2022/07/29 22:02:47;;;;;;;2.75;1.88;;;22.60;58.80;;;;;;10532343;28;20032;-51
2022/07/29 22:07:48;;;;;;;3.88;2.22;;;22.60;58.80;;;;;;10513877;28;20028;-50
2022/07/29 22:12:53;;;;;;;2.65;1.80;;;22.60;58.80;;;;;;10514166;28;20016;-53
2022/07/29 22:17:54;;;;;;;3.85;2.50;;;22.60;58.80;;;;;;10497439;28;20028;-50
2022/07/29 22:22:55;;;;;;;2.70;1.90;;;22.60;58.90;;;;;;10531915;28;20020;-52
2022/07/29 22:27:55;;;;;;;2.80;2.20;;;22.60;58.90;;;;;;10538916;28;20081;-52
2022/07/29 22:32:56;;;;;;;4.00;1.95;;;22.60;58.90;;;;;;10525340;28;20039;-49
2022/07/29 22:37:57;;;;;;;3.15;1.92;;;22.60;59.60;;;;;;10520874;28;20127;-55
2022/07/29 22:42:58;;;;;;;3.58;2.10;;;22.60;59.00;;;;;;10520938;28;20115;-55
2022/07/29 22:47:58;;;;;;;3.22;1.92;;;22.60;59.10;;;;;;10539222;28;20044;-55
2022/07/29 22:52:59;;;;;;;4.00;2.05;;;22.60;59.10;;;;;;10539069;28;20396;-54
2022/07/29 22:58:00;;;;;;;2.58;1.85;;;22.60;59.10;;;;;;10520096;28;20554;-54
2022/07/29 23:03:00;;;;;;;2.80;2.10;;;22.60;59.20;;;;;;10538304;28;20031;-55
2022/07/29 23:08:01;;;;;;;2.50;2.13;;;22.60;59.20;;;;;;10520123;28;20024;-54
2022/07/29 23:13:02;;;;;;;5.28;2.67;;;22.60;59.20;;;;;;10519696;28;20036;-55
2022/07/29 23:18:02;;;;;;;3.63;2.95;;;22.60;59.30;;;;;;10519782;28;20051;-55
2022/07/29 23:23:03;;;;;;;4.88;2.20;;;22.60;59.40;;;;;;10537558;28;20024;-53
2022/07/29 23:28:04;;;;;;;3.97;2.45;;;22.60;59.40;;;;;;10532962;28;20028;-55
2022/07/29 23:33:05;;;;;;;3.47;2.03;;;22.50;59.50;;;;;;10533539;28;20036;-54
2022/07/29 23:38:06;;;;;;;2.72;2.00;;;22.60;59.50;;;;;;10518543;28;20032;-55
2022/07/29 23:43:06;;;;;;;4.65;2.45;;;22.60;59.60;;;;;;10536988;28;20387;-55
2022/07/29 23:48:07;;;;;;;2.88;2.10;;;22.60;59.70;;;;;;10536395;28;20044;-55
2022/07/29 23:53:08;;;;;;;3.75;2.28;;;22.60;59.80;;;;;;10518298;28;20039;-54
2022/07/29 23:58:09;;;;;;;2.97;2.45;;;22.60;59.80;;;;;;10536576;28;20104;-53
